createdAt,value
2023-01-03T00:00:57.557Z,20.00
2023-01-03T00:06:02.147Z,21.00
2023-01-03T00:11:12.604Z,23.25
2023-01-03T00:16:18.135Z,24.50
2023-01-03T00:21:22.676Z,20.75
2023-01-03T00:26:28.202Z,22.75
2023-01-03T00:31:32.641Z,21.00
2023-01-03T00:36:37.606Z,18.25
2023-01-03T00:41:42.491Z,24.75
2023-01-03T00:46:48.724Z,26.75
2023-01-03T00:51:55.051Z,19.50
2023-01-03T00:56:59.531Z,22.75
2023-01-03T01:02:04.426Z,23.25
2023-01-03T01:07:09.225Z,20.50
2023-01-03T01:12:13.868Z,21.25
2023-01-03T01:17:22.606Z,25.25
2023-01-03T01:22:27.560Z,26.25
2023-01-03T01:27:33.873Z,28.00
2023-01-03T01:32:38.284Z,26.75
2023-01-03T01:37:42.757Z,22.50
2023-01-03T01:43:05.355Z,22.00
2023-01-03T01:48:13.925Z,29.00
2023-01-03T01:53:23.627Z,22.25
2023-01-03T01:58:29.960Z,26.00
2023-01-03T02:03:34.622Z,26.75
2023-01-03T02:08:39.198Z,22.75
2023-01-03T02:13:55.734Z,27.25
2023-01-03T02:19:12.634Z,27.25
2023-01-03T02:24:37.089Z,22.25
2023-01-03T02:29:56.299Z,30.75
2023-01-03T02:35:09.894Z,32.75
2023-01-03T02:40:24.961Z,22.75
2023-01-03T02:45:29.663Z,27.50
2023-01-03T02:50:45.542Z,29.00
2023-01-03T02:55:52.482Z,26.25
2023-01-03T03:01:00.697Z,26.50
2023-01-03T03:06:23.451Z,49.50
2023-01-03T03:11:48.861Z,23.00
2023-01-03T03:16:55.755Z,23.00
2023-01-03T03:22:19.905Z,28.50
2023-01-03T03:28:05.095Z,24.50
2023-01-03T03:33:12.141Z,26.75
2023-01-03T03:38:21.135Z,32.25
2023-01-03T03:44:00.605Z,25.00
2023-01-03T03:49:23.292Z,29.00
2023-01-03T03:54:30.227Z,28.25
2023-01-03T03:59:35.770Z,25.50
2023-01-03T04:04:44.923Z,28.25
2023-01-03T04:09:49.129Z,28.00
2023-01-03T04:14:53.876Z,29.00
2023-01-03T04:19:58.458Z,30.25
2023-01-03T04:25:03.141Z,29.50
2023-01-03T04:30:08.477Z,30.00
2023-01-03T04:35:13.157Z,38.00
2023-01-03T04:40:18.348Z,51.50
2023-01-03T04:45:23.109Z,37.50
2023-01-03T04:50:27.827Z,34.00
2023-01-03T04:55:32.716Z,35.50
2023-01-03T05:00:37.395Z,37.00
2023-01-03T05:05:42.506Z,36.75
2023-01-03T05:10:47.281Z,39.50
2023-01-03T05:15:52.009Z,34.75
2023-01-03T05:21:15.155Z,31.50
2023-01-03T05:26:21.232Z,50.25
2023-01-03T05:31:26.520Z,35.00
2023-01-03T05:36:30.778Z,27.75
2023-01-03T05:41:53.057Z,30.50
2023-01-03T05:46:58.578Z,33.50
2023-01-03T05:52:03.512Z,33.25
2023-01-03T05:57:08.168Z,28.25
2023-01-03T06:02:13.083Z,38.50
2023-01-03T06:07:17.881Z,32.50
2023-01-03T06:12:22.115Z,38.00
2023-01-03T06:17:44.865Z,32.75
2023-01-03T06:22:49.531Z,28.00
2023-01-03T06:27:54.942Z,36.50
2023-01-03T06:32:59.591Z,29.75
2023-01-03T06:38:04.560Z,38.25
2023-01-03T06:43:08.782Z,34.75
2023-01-03T06:48:32.971Z,32.25
2023-01-03T06:53:39.586Z,28.00
2023-01-03T06:58:44.042Z,27.50
2023-01-03T07:03:48.550Z,22.25
2023-01-03T07:08:53.070Z,30.75
2023-01-03T07:14:00.542Z,25.50
2023-01-03T07:19:06.915Z,35.00
2023-01-03T07:24:13.870Z,27.75
2023-01-03T07:29:18.343Z,24.00
2023-01-03T07:34:22.745Z,25.25
2023-01-03T07:39:27.283Z,23.25
2023-01-03T07:44:31.799Z,26.25
2023-01-03T07:49:36.112Z,27.50
2023-01-03T07:54:40.466Z,24.00
2023-01-03T07:59:45.742Z,27.75
2023-01-03T08:04:50.056Z,20.50
2023-01-03T08:10:12.674Z,28.25
2023-01-03T08:15:16.849Z,24.25
2023-01-03T08:20:21.237Z,29.25
2023-01-03T08:25:26.491Z,31.75
2023-01-03T08:30:31.327Z,26.00
2023-01-03T08:35:38.185Z,28.25
2023-01-03T08:40:43.706Z,25.25
2023-01-03T08:45:49.463Z,27.25
2023-01-03T08:50:54.360Z,25.50
2023-01-03T08:55:58.631Z,30.25
2023-01-03T09:01:03.796Z,24.75
2023-01-03T09:06:08.539Z,30.75
2023-01-03T09:11:13.214Z,32.00
2023-01-03T09:16:18.224Z,30.00
2023-01-03T09:21:22.404Z,39.00
2023-01-03T09:26:26.823Z,50.75
2023-01-03T09:31:35.800Z,51.25
2023-01-03T09:36:41.129Z,48.00
2023-01-03T09:41:45.794Z,51.50
2023-01-03T09:46:50.020Z,55.50
2023-01-03T09:52:12.260Z,55.25
2023-01-03T09:57:36.573Z,58.50
2023-01-03T10:02:59.094Z,57.25
2023-01-03T10:08:21.632Z,52.25
2023-01-03T10:13:33.761Z,54.50
2023-01-03T10:18:41.033Z,54.75
2023-01-03T10:23:45.515Z,56.75
2023-01-03T10:28:49.851Z,53.25
2023-01-03T10:33:54.047Z,52.50
2023-01-03T10:39:08.759Z,51.00
2023-01-03T10:44:28.417Z,54.75
2023-01-03T10:49:34.609Z,53.00
2023-01-03T10:54:50.835Z,53.75
2023-01-03T10:59:55.779Z,50.25
2023-01-03T11:05:16.859Z,53.50
2023-01-03T11:10:22.141Z,49.75
2023-01-03T11:15:38.458Z,43.00
2023-01-03T11:21:02.200Z,47.50
2023-01-03T11:26:15.683Z,45.75
2023-01-03T11:31:26.579Z,43.75
2023-01-03T11:36:31.003Z,46.50
2023-01-03T11:41:35.853Z,46.25
2023-01-03T11:46:40.204Z,47.50
2023-01-03T11:51:59.301Z,51.50
2023-01-03T11:57:10.009Z,45.50
2023-01-03T12:02:24.717Z,49.00
2023-01-03T12:07:49.167Z,45.00
2023-01-03T12:12:56.958Z,37.75
2023-01-03T12:18:05.389Z,39.75
2023-01-03T12:23:28.793Z,43.75
2023-01-03T12:28:40.771Z,38.25
2023-01-03T12:33:48.684Z,40.75
2023-01-03T12:39:05.676Z,40.75
2023-01-03T12:44:13.067Z,43.75
2023-01-03T12:49:21.591Z,41.25
2023-01-03T12:54:37.868Z,35.00
2023-01-03T13:00:02.240Z,34.25
2023-01-03T13:05:16.627Z,50.25
2023-01-03T13:10:22.154Z,43.75
2023-01-03T13:15:35.745Z,40.50
2023-01-03T13:20:46.361Z,44.00
2023-01-03T13:26:09.213Z,41.00
2023-01-03T13:31:20.555Z,40.25
2023-01-03T13:36:25.420Z,35.50
2023-01-03T13:41:38.804Z,33.00
2023-01-03T13:46:44.530Z,40.00
2023-01-03T13:51:51.165Z,30.50
2023-01-03T13:57:03.746Z,34.25
2023-01-03T14:02:10.222Z,37.25
2023-01-03T14:07:20.620Z,32.25
2023-01-03T14:12:33.691Z,33.75
2023-01-03T14:17:40.165Z,31.75
2023-01-03T14:22:50.083Z,32.50
2023-01-03T14:27:56.112Z,35.50
2023-01-03T14:33:02.133Z,30.50
2023-01-03T14:38:07.543Z,37.25
2023-01-03T14:43:21.224Z,30.50
2023-01-03T14:48:26.589Z,34.00
2023-01-03T14:53:34.374Z,25.75
2023-01-03T14:58:46.655Z,30.25
2023-01-03T15:03:52.677Z,36.50
2023-01-03T15:09:00.518Z,35.75
2023-01-03T15:14:10.588Z,35.50
2023-01-03T15:19:21.312Z,40.25
2023-01-03T15:24:27.734Z,30.75
2023-01-03T15:29:45.536Z,42.75
2023-01-03T15:34:51.631Z,42.50
2023-01-03T15:39:58.661Z,38.75
2023-01-03T15:45:04.180Z,37.00
2023-01-03T15:50:09.252Z,45.25
2023-01-03T15:55:14.636Z,47.50
2023-01-03T16:00:22.022Z,48.25
2023-01-03T16:05:26.780Z,50.75
2023-01-03T16:10:31.256Z,54.50
2023-01-03T16:15:36.468Z,56.75
2023-01-03T16:20:41.636Z,52.50
2023-01-03T16:25:46.557Z,53.25
2023-01-03T16:31:26.831Z,52.75
2023-01-03T16:36:37.889Z,62.00
2023-01-03T16:41:42.163Z,65.25
2023-01-03T16:46:46.909Z,60.25
2023-01-03T16:51:57.272Z,59.50
2023-01-03T16:57:03.349Z,64.75
2023-01-03T17:02:08.334Z,63.75
2023-01-03T17:07:21.316Z,64.50
2023-01-03T17:12:26.482Z,73.00
2023-01-03T17:17:31.398Z,70.75
2023-01-03T17:22:36.271Z,71.50
2023-01-03T17:27:40.951Z,78.75
2023-01-03T17:32:46.189Z,70.00
2023-01-03T17:43:22.462Z,72.50
2023-01-03T17:48:44.725Z,73.75
2023-01-03T17:53:51.717Z,78.25
2023-01-03T17:58:56.769Z,73.50
2023-01-03T18:04:01.489Z,70.75
2023-01-03T18:09:08.982Z,69.50
2023-01-03T18:14:15.747Z,73.75
2023-01-03T18:19:21.288Z,75.50
2023-01-03T18:24:32.336Z,77.00
2023-01-03T18:29:36.830Z,74.00
2023-01-03T18:34:41.370Z,75.00
2023-01-03T18:39:46.423Z,68.25
2023-01-03T18:44:50.672Z,73.25
2023-01-03T18:49:55.172Z,68.00
2023-01-03T18:54:59.854Z,63.00
2023-01-03T19:00:04.491Z,64.75
2023-01-03T19:05:09.085Z,62.75
2023-01-03T19:10:31.772Z,64.50
2023-01-03T19:15:36.086Z,64.50
2023-01-03T19:20:40.291Z,63.00
2023-01-03T19:25:44.968Z,56.25
2023-01-03T19:30:49.828Z,66.00
2023-01-03T19:35:54.423Z,58.75
2023-01-03T19:40:59.154Z,62.75
2023-01-03T19:46:03.810Z,58.25
2023-01-03T19:51:08.171Z,54.75
2023-01-03T19:56:20.727Z,55.00
2023-01-03T20:01:25.334Z,57.25
2023-01-03T20:06:29.973Z,52.50
2023-01-03T20:11:34.679Z,53.25
2023-01-03T20:16:38.794Z,48.50
2023-01-03T20:21:43.883Z,51.00
2023-01-03T20:26:48.528Z,51.00
2023-01-03T20:31:53.156Z,50.50
2023-01-03T20:36:57.992Z,50.00
2023-01-03T20:42:04.042Z,54.50
2023-01-03T20:47:08.693Z,55.00
2023-01-03T20:52:17.707Z,53.25
2023-01-03T20:57:22.578Z,54.00
2023-01-03T21:02:28.218Z,49.25
2023-01-03T21:07:51.117Z,51.50
2023-01-03T21:12:55.528Z,50.50
2023-01-03T21:18:00.191Z,48.75
2023-01-03T21:23:04.706Z,53.50
2023-01-03T21:28:11.362Z,47.75
2023-01-03T21:33:19.852Z,48.75
2023-01-03T21:38:24.727Z,46.50
2023-01-03T21:43:29.212Z,45.00
2023-01-03T21:48:33.626Z,46.25
2023-01-03T21:53:38.320Z,42.50
2023-01-03T21:58:42.891Z,43.25
2023-01-03T22:04:05.817Z,49.75
2023-01-03T22:09:30.078Z,47.75
2023-01-03T22:14:34.619Z,41.25
2023-01-03T22:19:39.180Z,42.00
2023-01-03T22:24:43.796Z,48.00
2023-01-03T22:29:48.278Z,47.25
2023-01-03T22:34:52.806Z,41.00
2023-01-03T22:39:57.322Z,38.75
2023-01-03T22:45:01.870Z,33.50
2023-01-03T22:50:07.753Z,31.25
2023-01-03T22:55:12.923Z,41.25
2023-01-03T23:00:17.539Z,39.00
2023-01-03T23:05:22.088Z,37.75
2023-01-03T23:10:26.572Z,27.25
2023-01-03T23:15:32.171Z,34.50
2023-01-03T23:20:37.019Z,33.50
2023-01-03T23:25:41.102Z,37.75
2023-01-03T23:30:45.167Z,31.25
2023-01-03T23:35:49.249Z,41.75
2023-01-03T23:41:02.381Z,37.25
2023-01-03T23:46:07.200Z,33.50
2023-01-03T23:51:12.313Z,36.25
2023-01-03T23:56:17.309Z,38.25
